»·PEaware :: N926KW KLGB-KPMD

N926KW :: KLGB-KPMD

FLIGHT INFORMATION

Flight Status: Arrived
Operator: Privately registered:
United States
More flights under this callsign
Pilot: Joshua S. (14624)
Aircraft: CIRRUS SR-22
(SR22)
More flights by this aircraft type
Origin: KLGB Long Beach
United States
Destination: KPMD Palmdale AF Plant 42
United States
More flights between these airports :: More routes between these airports
Route: FIM V386 PMD
File this flight plan on PilotEdge
Remarks:
Altitude:
(Current/Filed)
8,000ft
Speed:
(Current/Filed)
150kts
Departed: 25-Jan-22 12:55 PM
Arrived: 25-Jan-22 01:37 PM
Distance/Time
Traveled:
49nm/0:42
Distance/Time
To Go:
Arrived

Flight Plot

Page will automatically refresh every two minutes.

Flight plan parsing failed; only flown route is shown


Map Options




Map Legend


Flown Route
Filed Route
Departure Airport
Arrival Airport
Navaid (VOR, NDB)
Fix

Horizontal Profiles

Position Reports

Time Latitude Longitude Heading Altitude Ground
Speed
25-Jan-22 12:43 33.812338 -118.154386 90 63ft 0kts
25-Jan-22 12:44 33.812338 -118.154386 90 63ft 0kts
25-Jan-22 12:45 33.812338 -118.154386 90 63ft 0kts
25-Jan-22 12:46 33.812338 -118.154386 90 63ft 0kts
25-Jan-22 12:47 33.812338 -118.154386 90 63ft 0kts
25-Jan-22 12:48 33.812338 -118.154386 90 63ft 0kts
25-Jan-22 12:49 33.812338 -118.154386 90 63ft 0kts
25-Jan-22 12:50 33.812338 -118.154386 89 63ft 0kts
25-Jan-22 12:51 33.812338 -118.154386 89 63ft 0kts
25-Jan-22 12:52 33.813087 -118.151459 88 63ft 13kts
25-Jan-22 12:53 33.813413 -118.148607 13 63ft 0kts
25-Jan-22 12:54 33.814488 -118.149186 312 63ft 41kts
25-Jan-22 12:55 33.829264 -118.171348 281 1345ft 101kts
25-Jan-22 12:56 33.836797 -118.208998 282 2503ft 114kts
25-Jan-22 12:57 33.845008 -118.252855 282 3011ft 161kts
25-Jan-22 12:58 33.869081 -118.300790 300 3625ft 152kts
25-Jan-22 12:59 33.891067 -118.345749 301 4684ft 143kts
25-Jan-22 13:00 33.912796 -118.390310 301 5655ft 143kts
25-Jan-22 13:01 33.933951 -118.433614 303 6615ft 141kts
25-Jan-22 13:02 33.948121 -118.478998 293 7574ft 139kts
25-Jan-22 13:03 33.963190 -118.526072 289 8000ft 156kts
25-Jan-22 13:04 33.979397 -118.576918 289 8005ft 157kts
25-Jan-22 13:05 33.995166 -118.626532 289 8004ft 152kts
25-Jan-22 13:06 34.011048 -118.676466 288 8017ft 157kts
25-Jan-22 13:07 34.027819 -118.729310 289 8020ft 161kts
25-Jan-22 13:08 34.043799 -118.782817 285 8024ft 159kts
25-Jan-22 13:09 34.064938 -118.861728 287 8027ft 160kts
25-Jan-22 13:10 34.090562 -118.957311 287 8029ft 159kts
25-Jan-22 13:11 34.105933 -119.012562 304 7996ft 161kts
25-Jan-22 13:12 34.136359 -118.988789 106 7808ft 190kts
25-Jan-22 13:13 34.095587 -118.990517 262 7265ft 174kts
25-Jan-22 13:14 34.132637 -119.002688 37 7023ft 178kts
25-Jan-22 13:15 34.179446 -118.974838 18 7022ft 172kts
25-Jan-22 13:16 34.227346 -118.949601 19 7016ft 172kts
25-Jan-22 13:17 34.274991 -118.924462 19 7014ft 173kts
25-Jan-22 13:18 34.322209 -118.899571 19 7014ft 173kts
25-Jan-22 13:19 34.363086 -118.865170 71 7011ft 179kts
25-Jan-22 13:20 34.382298 -118.806035 64 7015ft 180kts
25-Jan-22 13:21 34.402463 -118.746744 64 7012ft 179kts
25-Jan-22 13:22 34.422858 -118.686459 64 7007ft 177kts
25-Jan-22 13:23 34.443011 -118.626716 64 7003ft 175kts
25-Jan-22 13:25 34.462963 -118.567595 63 6998ft 172kts
25-Jan-22 13:26 34.482182 -118.510579 63 7004ft 170kts
25-Jan-22 13:27 34.500864 -118.454971 63 7019ft 169kts
25-Jan-22 13:28 34.519405 -118.399697 63 7038ft 167kts
25-Jan-22 13:29 34.548255 -118.364675 332 7062ft 164kts
25-Jan-22 13:30 34.586378 -118.396474 355 7038ft 160kts
25-Jan-22 13:31 34.624191 -118.369155 69 7039ft 163kts
25-Jan-22 13:32 34.619706 -118.307573 79 6314ft 180kts
25-Jan-22 13:33 34.629738 -118.244337 71 5044ft 181kts
25-Jan-22 13:34 34.635613 -118.182489 104 4058ft 167kts
25-Jan-22 13:35 34.629267 -118.145274 71 3202ft 80kts
25-Jan-22 13:36 34.630306 -118.118443 82 2680ft 75kts
25-Jan-22 13:37 34.631379 -118.100705 76 2545ft 4kts
25-Jan-22 13:38 34.634754 -118.099145 42 2545ft 37kts
25-Jan-22 13:39 34.636365 -118.097009 172 2545ft 0kts
25-Jan-22 13:40 34.636365 -118.097009 172 2545ft 0kts
25-Jan-22 13:41 34.636365 -118.097009 172 2545ft 0kts
25-Jan-22 13:42 34.636365 -118.097009 172 2545ft 0kts
25-Jan-22 13:43 34.636365 -118.097009 172 2545ft 0kts

Navigation Log

Ident Type
Flight plan parsing failed, navigation log unavailable